sensor_id;sensor_type;location;lat;lon;timestamp;pressure;altitude;pressure_sealevel;temperature;humidity
23166;BME280;11751;42.700;24.170;2023-02-04T00:01:39;93746.84;;;1.25;94.24
23166;BME280;11751;42.700;24.170;2023-02-04T00:04:04;93743.38;;;1.13;94.41
23166;BME280;11751;42.700;24.170;2023-02-04T00:06:30;93744.63;;;1.18;94.32
23166;BME280;11751;42.700;24.170;2023-02-04T00:08:55;93736.63;;;1.09;94.96
23166;BME280;11751;42.700;24.170;2023-02-04T00:11:21;93738.38;;;1.12;94.80
23166;BME280;11751;42.700;24.170;2023-02-04T00:13:47;93744.38;;;1.16;94.91
23166;BME280;11751;42.700;24.170;2023-02-04T00:16:12;93730.59;;;1.05;94.94
23166;BME280;11751;42.700;24.170;2023-02-04T00:18:37;93722.31;;;1.16;94.90
23166;BME280;11751;42.700;24.170;2023-02-04T00:21:03;93722.81;;;1.20;95.14
23166;BME280;11751;42.700;24.170;2023-02-04T00:23:29;93710.50;;;1.26;94.21
23166;BME280;11751;42.700;24.170;2023-02-04T00:25:54;93714.00;;;1.32;94.14
23166;BME280;11751;42.700;24.170;2023-02-04T00:28:20;93704.19;;;1.37;93.97
23166;BME280;11751;42.700;24.170;2023-02-04T00:30:45;93709.47;;;1.29;94.13
23166;BME280;11751;42.700;24.170;2023-02-04T00:33:12;93709.75;;;1.26;94.03
23166;BME280;11751;42.700;24.170;2023-02-04T00:35:37;93703.94;;;1.40;93.73
23166;BME280;11751;42.700;24.170;2023-02-04T00:38:03;93693.72;;;1.24;94.00
23166;BME280;11751;42.700;24.170;2023-02-04T00:40:29;93690.22;;;1.13;95.11
23166;BME280;11751;42.700;24.170;2023-02-04T00:42:55;93682.19;;;1.26;94.32
23166;BME280;11751;42.700;24.170;2023-02-04T00:45:20;93679.13;;;1.35;94.51
23166;BME280;11751;42.700;24.170;2023-02-04T00:47:45;93671.63;;;1.30;94.56
23166;BME280;11751;42.700;24.170;2023-02-04T00:50:11;93666.59;;;1.34;94.49
23166;BME280;11751;42.700;24.170;2023-02-04T00:52:36;93666.38;;;1.32;94.65
23166;BME280;11751;42.700;24.170;2023-02-04T00:55:02;93670.38;;;1.36;94.33
23166;BME280;11751;42.700;24.170;2023-02-04T00:57:28;93658.09;;;1.32;94.71
23166;BME280;11751;42.700;24.170;2023-02-04T00:59:53;93656.88;;;1.27;94.76
23166;BME280;11751;42.700;24.170;2023-02-04T01:02:18;93652.81;;;1.34;94.81
23166;BME280;11751;42.700;24.170;2023-02-04T01:04:44;93639.34;;;1.19;95.20
23166;BME280;11751;42.700;24.170;2023-02-04T01:07:09;93636.03;;;1.32;95.11
23166;BME280;11751;42.700;24.170;2023-02-04T01:09:35;93633.50;;;1.34;94.70
23166;BME280;11751;42.700;24.170;2023-02-04T01:12:00;93631.53;;;1.29;95.01
23166;BME280;11751;42.700;24.170;2023-02-04T01:14:25;93627.81;;;1.21;95.49
23166;BME280;11751;42.700;24.170;2023-02-04T01:16:51;93625.06;;;1.21;95.59
23166;BME280;11751;42.700;24.170;2023-02-04T01:19:16;93617.50;;;1.27;95.34
23166;BME280;11751;42.700;24.170;2023-02-04T01:21:42;93611.97;;;1.27;95.41
23166;BME280;11751;42.700;24.170;2023-02-04T01:24:07;93609.47;;;1.29;95.24
23166;BME280;11751;42.700;24.170;2023-02-04T01:26:33;93602.44;;;1.33;95.76
23166;BME280;11751;42.700;24.170;2023-02-04T01:28:58;93604.38;;;1.44;95.05
23166;BME280;11751;42.700;24.170;2023-02-04T01:31:24;93595.06;;;1.47;94.66
23166;BME280;11751;42.700;24.170;2023-02-04T01:33:49;93593.88;;;1.37;94.82
23166;BME280;11751;42.700;24.170;2023-02-04T01:36:15;93590.63;;;1.33;95.31
23166;BME280;11751;42.700;24.170;2023-02-04T01:38:46;93590.09;;;1.40;95.55
23166;BME280;11751;42.700;24.170;2023-02-04T01:41:11;93574.25;;;1.46;95.09
23166;BME280;11751;42.700;24.170;2023-02-04T01:43:37;93585.31;;;1.46;94.58
23166;BME280;11751;42.700;24.170;2023-02-04T01:46:02;93575.41;;;1.26;95.16
23166;BME280;11751;42.700;24.170;2023-02-04T01:48:28;93573.03;;;1.41;94.84
23166;BME280;11751;42.700;24.170;2023-02-04T01:51:03;93561.00;;;1.44;94.29
23166;BME280;11751;42.700;24.170;2023-02-04T01:53:29;93567.94;;;1.56;93.90
23166;BME280;11751;42.700;24.170;2023-02-04T01:55:55;93559.47;;;1.49;93.90
23166;BME280;11751;42.700;24.170;2023-02-04T01:58:21;93557.44;;;1.49;94.34
23166;BME280;11751;42.700;24.170;2023-02-04T02:00:46;93556.38;;;1.58;94.21
23166;BME280;11751;42.700;24.170;2023-02-04T02:03:12;93552.66;;;1.55;94.11
23166;BME280;11751;42.700;24.170;2023-02-04T02:05:44;93545.66;;;1.49;94.96
23166;BME280;11751;42.700;24.170;2023-02-04T02:08:11;93546.88;;;1.53;94.56
23166;BME280;11751;42.700;24.170;2023-02-04T02:10:39;93540.81;;;1.60;93.99
23166;BME280;11751;42.700;24.170;2023-02-04T02:13:06;93541.00;;;1.67;93.77
23166;BME280;11751;42.700;24.170;2023-02-04T02:15:33;93534.00;;;1.67;93.42
23166;BME280;11751;42.700;24.170;2023-02-04T02:17:58;93530.53;;;1.61;93.72
23166;BME280;11751;42.700;24.170;2023-02-04T02:20:25;93522.84;;;1.48;93.97
23166;BME280;11751;42.700;24.170;2023-02-04T02:23:03;93523.69;;;1.38;94.75
23166;BME280;11751;42.700;24.170;2023-02-04T02:25:31;93540.16;;;1.49;94.55
23166;BME280;11751;42.700;24.170;2023-02-04T02:27:57;93539.41;;;1.43;94.82
23166;BME280;11751;42.700;24.170;2023-02-04T02:30:23;93524.06;;;1.53;94.51
23166;BME280;11751;42.700;24.170;2023-02-04T02:32:50;93521.81;;;1.51;94.64
23166;BME280;11751;42.700;24.170;2023-02-04T02:35:16;93513.59;;;1.46;94.95
23166;BME280;11751;42.700;24.170;2023-02-04T02:37:42;93518.31;;;1.51;95.06
23166;BME280;11751;42.700;24.170;2023-02-04T02:40:08;93506.97;;;1.60;94.65
23166;BME280;11751;42.700;24.170;2023-02-04T02:42:34;93505.00;;;1.55;94.70
23166;BME280;11751;42.700;24.170;2023-02-04T02:45:03;93504.16;;;1.65;95.06
23166;BME280;11751;42.700;24.170;2023-02-04T02:47:29;93505.84;;;1.73;94.89
23166;BME280;11751;42.700;24.170;2023-02-04T02:49:55;93499.09;;;1.69;95.10
23166;BME280;11751;42.700;24.170;2023-02-04T02:52:20;93495.72;;;1.81;94.91
23166;BME280;11751;42.700;24.170;2023-02-04T02:54:47;93490.78;;;1.74;95.39
23166;BME280;11751;42.700;24.170;2023-02-04T02:57:16;93491.59;;;1.69;95.61
23166;BME280;11751;42.700;24.170;2023-02-04T02:59:43;93492.66;;;1.61;96.08
23166;BME280;11751;42.700;24.170;2023-02-04T03:02:10;93483.59;;;1.66;95.63
23166;BME280;11751;42.700;24.170;2023-02-04T03:04:40;93476.84;;;1.62;95.94
23166;BME280;11751;42.700;24.170;2023-02-04T03:07:08;93472.84;;;1.57;95.65
23166;BME280;11751;42.700;24.170;2023-02-04T03:09:35;93466.84;;;1.59;95.93
23166;BME280;11751;42.700;24.170;2023-02-04T03:12:01;93476.84;;;1.62;95.65
23166;BME280;11751;42.700;24.170;2023-02-04T03:14:26;93466.56;;;1.62;95.49
23166;BME280;11751;42.700;24.170;2023-02-04T03:16:53;93461.03;;;1.62;95.60
23166;BME280;11751;42.700;24.170;2023-02-04T03:19:19;93441.31;;;1.53;95.83
23166;BME280;11751;42.700;24.170;2023-02-04T03:21:45;93433.03;;;1.53;95.92
23166;BME280;11751;42.700;24.170;2023-02-04T03:24:11;93432.53;;;1.54;95.98
23166;BME280;11751;42.700;24.170;2023-02-04T03:26:36;93424.19;;;1.30;96.69
23166;BME280;11751;42.700;24.170;2023-02-04T03:29:05;93427.47;;;1.29;96.92
23166;BME280;11751;42.700;24.170;2023-02-04T03:31:31;93424.00;;;1.23;97.40
23166;BME280;11751;42.700;24.170;2023-02-04T03:33:57;93423.22;;;1.28;97.32
23166;BME280;11751;42.700;24.170;2023-02-04T03:36:22;93421.97;;;1.29;97.24
23166;BME280;11751;42.700;24.170;2023-02-04T03:38:48;93416.13;;;1.38;97.13
23166;BME280;11751;42.700;24.170;2023-02-04T03:41:13;93418.84;;;1.43;97.02
23166;BME280;11751;42.700;24.170;2023-02-04T03:43:39;93419.66;;;1.33;97.50
23166;BME280;11751;42.700;24.170;2023-02-04T03:46:04;93408.13;;;1.34;97.47
23166;BME280;11751;42.700;24.170;2023-02-04T03:48:29;93422.81;;;1.48;97.21
23166;BME280;11751;42.700;24.170;2023-02-04T03:50:55;93431.78;;;1.24;97.87
23166;BME280;11751;42.700;24.170;2023-02-04T03:53:20;93415.88;;;1.06;98.98
23166;BME280;11751;42.700;24.170;2023-02-04T03:55:46;93418.41;;;1.34;98.51
23166;BME280;11751;42.700;24.170;2023-02-04T03:58:11;93407.03;;;1.43;97.71
23166;BME280;11751;42.700;24.170;2023-02-04T04:00:37;93410.75;;;1.51;97.29
23166;BME280;11751;42.700;24.170;2023-02-04T04:03:02;93403.72;;;1.50;96.77
23166;BME280;11751;42.700;24.170;2023-02-04T04:05:28;93399.97;;;1.47;97.22
23166;BME280;11751;42.700;24.170;2023-02-04T04:07:53;93400.97;;;1.50;96.69
23166;BME280;11751;42.700;24.170;2023-02-04T04:10:19;93382.69;;;1.47;96.40
23166;BME280;11751;42.700;24.170;2023-02-04T04:12:44;93377.78;;;1.34;97.16
23166;BME280;11751;42.700;24.170;2023-02-04T04:15:10;93377.25;;;1.12;98.24
23166;BME280;11751;42.700;24.170;2023-02-04T04:17:35;93381.13;;;1.27;97.77
23166;BME280;11751;42.700;24.170;2023-02-04T04:20:01;93381.47;;;1.13;97.88
23166;BME280;11751;42.700;24.170;2023-02-04T04:22:26;93367.00;;;1.07;97.76
23166;BME280;11751;42.700;24.170;2023-02-04T04:24:51;93368.56;;;0.68;99.48
23166;BME280;11751;42.700;24.170;2023-02-04T04:27:17;93359.53;;;0.67;100.00
23166;BME280;11751;42.700;24.170;2023-02-04T04:29:42;93370.16;;;0.87;99.49
23166;BME280;11751;42.700;24.170;2023-02-04T04:32:08;93368.81;;;0.99;99.00
23166;BME280;11751;42.700;24.170;2023-02-04T04:34:34;93366.44;;;1.14;98.47
23166;BME280;11751;42.700;24.170;2023-02-04T04:36:59;93369.91;;;1.20;98.55
23166;BME280;11751;42.700;24.170;2023-02-04T04:39:25;93369.00;;;1.36;98.10
23166;BME280;11751;42.700;24.170;2023-02-04T04:41:50;93362.22;;;1.37;98.07
23166;BME280;11751;42.700;24.170;2023-02-04T04:44:16;93363.13;;;1.45;97.58
23166;BME280;11751;42.700;24.170;2023-02-04T04:46:41;93360.28;;;1.32;97.92
23166;BME280;11751;42.700;24.170;2023-02-04T04:49:06;93361.97;;;1.35;98.13
23166;BME280;11751;42.700;24.170;2023-02-04T04:51:32;93357.72;;;1.34;97.94
23166;BME280;11751;42.700;24.170;2023-02-04T04:53:58;93355.03;;;1.28;98.75
23166;BME280;11751;42.700;24.170;2023-02-04T04:56:24;93355.69;;;1.40;98.58
23166;BME280;11751;42.700;24.170;2023-02-04T04:58:49;93357.63;;;1.45;98.56
23166;BME280;11751;42.700;24.170;2023-02-04T05:01:14;93353.16;;;1.42;98.54
23166;BME280;11751;42.700;24.170;2023-02-04T05:03:40;93358.34;;;1.51;98.39
23166;BME280;11751;42.700;24.170;2023-02-04T05:06:06;93362.00;;;1.59;97.97
23166;BME280;11751;42.700;24.170;2023-02-04T05:08:32;93364.28;;;1.55;98.31
23166;BME280;11751;42.700;24.170;2023-02-04T05:11:00;93360.69;;;1.65;98.43
23166;BME280;11751;42.700;24.170;2023-02-04T05:13:26;93350.41;;;1.66;98.06
23166;BME280;11751;42.700;24.170;2023-02-04T05:15:51;93365.00;;;1.61;98.09
23166;BME280;11751;42.700;24.170;2023-02-04T05:18:16;93353.63;;;1.69;97.84
23166;BME280;11751;42.700;24.170;2023-02-04T05:20:42;93358.91;;;1.67;98.10
23166;BME280;11751;42.700;24.170;2023-02-04T05:23:07;93364.31;;;1.78;97.61
23166;BME280;11751;42.700;24.170;2023-02-04T05:25:33;93362.22;;;1.84;97.73
23166;BME280;11751;42.700;24.170;2023-02-04T05:27:58;93366.72;;;1.87;97.91
23166;BME280;11751;42.700;24.170;2023-02-04T05:30:23;93361.94;;;1.88;97.99
23166;BME280;11751;42.700;24.170;2023-02-04T05:32:49;93364.19;;;1.89;97.67
23166;BME280;11751;42.700;24.170;2023-02-04T05:35:14;93366.72;;;1.87;97.83
23166;BME280;11751;42.700;24.170;2023-02-04T05:37:40;93378.66;;;1.95;97.64
23166;BME280;11751;42.700;24.170;2023-02-04T05:40:06;93364.34;;;1.97;97.61
23166;BME280;11751;42.700;24.170;2023-02-04T05:42:31;93368.53;;;2.03;97.72
23166;BME280;11751;42.700;24.170;2023-02-04T05:44:57;93371.53;;;2.05;97.51
23166;BME280;11751;42.700;24.170;2023-02-04T05:47:22;93370.63;;;1.97;98.24
23166;BME280;11751;42.700;24.170;2023-02-04T05:49:47;93369.13;;;1.96;98.30
23166;BME280;11751;42.700;24.170;2023-02-04T05:52:13;93370.97;;;1.65;100.00
23166;BME280;11751;42.700;24.170;2023-02-04T05:54:38;93367.88;;;1.50;100.00
23166;BME280;11751;42.700;24.170;2023-02-04T05:57:04;93378.91;;;1.73;100.00
23166;BME280;11751;42.700;24.170;2023-02-04T05:59:29;93381.56;;;1.61;100.00
23166;BME280;11751;42.700;24.170;2023-02-04T06:01:55;93371.44;;;1.68;100.00
23166;BME280;11751;42.700;24.170;2023-02-04T06:04:20;93367.50;;;1.82;100.00
23166;BME280;11751;42.700;24.170;2023-02-04T06:06:46;93363.94;;;1.64;100.00
23166;BME280;11751;42.700;24.170;2023-02-04T06:09:12;93352.06;;;1.74;100.00
23166;BME280;11751;42.700;24.170;2023-02-04T06:11:37;93352.91;;;1.64;100.00
23166;BME280;11751;42.700;24.170;2023-02-04T06:14:03;93355.00;;;1.58;100.00
23166;BME280;11751;42.700;24.170;2023-02-04T06:16:28;93353.59;;;1.46;100.00
23166;BME280;11751;42.700;24.170;2023-02-04T06:18:54;93354.13;;;1.68;100.00
23166;BME280;11751;42.700;24.170;2023-02-04T06:21:19;93363.84;;;1.74;100.00
23166;BME280;11751;42.700;24.170;2023-02-04T06:23:44;93352.69;;;1.62;100.00
23166;BME280;11751;42.700;24.170;2023-02-04T06:26:10;93355.91;;;1.42;100.00
23166;BME280;11751;42.700;24.170;2023-02-04T06:28:35;93360.97;;;1.62;100.00
23166;BME280;11751;42.700;24.170;2023-02-04T06:31:01;93354.53;;;1.54;100.00
23166;BME280;11751;42.700;24.170;2023-02-04T06:33:27;93356.72;;;1.61;100.00
23166;BME280;11751;42.700;24.170;2023-02-04T06:35:52;93363.72;;;1.62;100.00
23166;BME280;11751;42.700;24.170;2023-02-04T06:38:18;93361.59;;;1.73;100.00
23166;BME280;11751;42.700;24.170;2023-02-04T06:40:43;93360.59;;;1.76;100.00
23166;BME280;11751;42.700;24.170;2023-02-04T06:43:09;93361.03;;;1.80;100.00
23166;BME280;11751;42.700;24.170;2023-02-04T06:45:34;93349.13;;;1.90;100.00
23166;BME280;11751;42.700;24.170;2023-02-04T06:48:00;93348.25;;;2.01;100.00
23166;BME280;11751;42.700;24.170;2023-02-04T06:50:25;93340.75;;;1.96;100.00
23166;BME280;11751;42.700;24.170;2023-02-04T06:52:51;93350.47;;;2.02;100.00
23166;BME280;11751;42.700;24.170;2023-02-04T06:55:16;93346.44;;;2.03;100.00
23166;BME280;11751;42.700;24.170;2023-02-04T06:57:42;93346.31;;;2.14;100.00
23166;BME280;11751;42.700;24.170;2023-02-04T07:00:09;93356.47;;;2.06;100.00
23166;BME280;11751;42.700;24.170;2023-02-04T07:02:35;93350.81;;;2.17;100.00
23166;BME280;11751;42.700;24.170;2023-02-04T07:05:02;93347.66;;;2.08;100.00
23166;BME280;11751;42.700;24.170;2023-02-04T07:07:27;93348.03;;;2.17;100.00
23166;BME280;11751;42.700;24.170;2023-02-04T07:09:53;93341.53;;;1.96;100.00
23166;BME280;11751;42.700;24.170;2023-02-04T07:12:19;93341.16;;;2.05;100.00
23166;BME280;11751;42.700;24.170;2023-02-04T07:14:44;93330.00;;;1.92;100.00
23166;BME280;11751;42.700;24.170;2023-02-04T07:17:09;93331.06;;;1.89;100.00
23166;BME280;11751;42.700;24.170;2023-02-04T07:19:35;93336.59;;;1.89;100.00
23166;BME280;11751;42.700;24.170;2023-02-04T07:22:04;93334.25;;;1.93;100.00
23166;BME280;11751;42.700;24.170;2023-02-04T07:24:29;93337.03;;;1.93;100.00
23166;BME280;11751;42.700;24.170;2023-02-04T07:26:55;93329.66;;;2.01;100.00
23166;BME280;11751;42.700;24.170;2023-02-04T07:29:20;93331.41;;;2.23;98.97
23166;BME280;11751;42.700;24.170;2023-02-04T07:31:46;93327.34;;;2.42;98.64
23166;BME280;11751;42.700;24.170;2023-02-04T07:34:14;93328.69;;;2.54;97.88
23166;BME280;11751;42.700;24.170;2023-02-04T07:36:40;93337.66;;;2.60;97.68
23166;BME280;11751;42.700;24.170;2023-02-04T07:39:06;93326.00;;;2.67;96.92
23166;BME280;11751;42.700;24.170;2023-02-04T07:41:32;93330.19;;;2.73;96.46
23166;BME280;11751;42.700;24.170;2023-02-04T07:43:58;93323.44;;;2.87;95.21
23166;BME280;11751;42.700;24.170;2023-02-04T07:46:24;93318.91;;;2.71;95.19
23166;BME280;11751;42.700;24.170;2023-02-04T07:48:49;93329.00;;;2.69;95.15
23166;BME280;11751;42.700;24.170;2023-02-04T07:51:14;93314.16;;;2.85;94.36
23166;BME280;11751;42.700;24.170;2023-02-04T07:53:40;93317.31;;;2.76;94.08
23166;BME280;11751;42.700;24.170;2023-02-04T07:56:05;93316.28;;;2.79;94.16
23166;BME280;11751;42.700;24.170;2023-02-04T07:58:31;93321.44;;;2.88;93.96
23166;BME280;11751;42.700;24.170;2023-02-04T08:00:56;93308.03;;;2.92;93.29
23166;BME280;11751;42.700;24.170;2023-02-04T08:03:22;93302.00;;;3.06;92.87
23166;BME280;11751;42.700;24.170;2023-02-04T08:05:47;93288.44;;;2.90;92.50
23166;BME280;11751;42.700;24.170;2023-02-04T08:08:13;93287.31;;;2.98;93.29
23166;BME280;11751;42.700;24.170;2023-02-04T08:10:39;93290.88;;;3.25;91.81
23166;BME280;11751;42.700;24.170;2023-02-04T08:13:05;93295.56;;;3.30;90.89
23166;BME280;11751;42.700;24.170;2023-02-04T08:15:30;93294.94;;;3.24;90.51
23166;BME280;11751;42.700;24.170;2023-02-04T08:17:55;93286.19;;;3.20;90.51
23166;BME280;11751;42.700;24.170;2023-02-04T08:20:21;93285.88;;;3.23;91.31
23166;BME280;11751;42.700;24.170;2023-02-04T08:22:46;93273.78;;;3.39;91.20
23166;BME280;11751;42.700;24.170;2023-02-04T08:25:12;93285.78;;;3.41;90.81
23166;BME280;11751;42.700;24.170;2023-02-04T08:27:37;93277.63;;;3.49;90.11
23166;BME280;11751;42.700;24.170;2023-02-04T08:30:03;93273.91;;;3.46;89.88
23166;BME280;11751;42.700;24.170;2023-02-04T08:32:29;93270.91;;;3.44;89.77
23166;BME280;11751;42.700;24.170;2023-02-04T08:34:56;93272.41;;;3.45;89.55
23166;BME280;11751;42.700;24.170;2023-02-04T08:37:21;93273.13;;;3.46;89.39
23166;BME280;11751;42.700;24.170;2023-02-04T08:39:47;93295.81;;;3.44;88.82
23166;BME280;11751;42.700;24.170;2023-02-04T08:42:13;93291.75;;;3.33;89.51
23166;BME280;11751;42.700;24.170;2023-02-04T08:44:40;93282.81;;;3.39;88.95
23166;BME280;11751;42.700;24.170;2023-02-04T08:47:05;93286.03;;;3.43;88.85
23166;BME280;11751;42.700;24.170;2023-02-04T08:49:30;93295.19;;;3.51;88.85
23166;BME280;11751;42.700;24.170;2023-02-04T08:51:56;93283.34;;;3.38;89.21
23166;BME280;11751;42.700;24.170;2023-02-04T08:54:21;93302.81;;;3.33;89.50
23166;BME280;11751;42.700;24.170;2023-02-04T08:56:47;93292.59;;;3.40;88.88
23166;BME280;11751;42.700;24.170;2023-02-04T08:59:12;93294.22;;;3.49;88.79
23166;BME280;11751;42.700;24.170;2023-02-04T09:01:38;93294.41;;;3.38;89.25
23166;BME280;11751;42.700;24.170;2023-02-04T09:04:03;93283.88;;;3.37;89.33
23166;BME280;11751;42.700;24.170;2023-02-04T09:06:28;93277.69;;;3.31;89.48
23166;BME280;11751;42.700;24.170;2023-02-04T09:08:54;93282.63;;;3.38;89.51
23166;BME280;11751;42.700;24.170;2023-02-04T09:11:19;93271.13;;;3.59;88.15
23166;BME280;11751;42.700;24.170;2023-02-04T09:13:45;93274.88;;;3.62;83.96
23166;BME280;11751;42.700;24.170;2023-02-04T09:16:10;93282.81;;;3.78;78.69
23166;BME280;11751;42.700;24.170;2023-02-04T09:18:36;93292.41;;;4.03;74.01
23166;BME280;11751;42.700;24.170;2023-02-04T09:21:01;93283.66;;;4.25;74.58
23166;BME280;11751;42.700;24.170;2023-02-04T09:23:27;93284.25;;;4.31;73.35
23166;BME280;11751;42.700;24.170;2023-02-04T09:25:52;93297.66;;;4.40;73.41
23166;BME280;11751;42.700;24.170;2023-02-04T09:28:18;93275.25;;;4.51;73.03
23166;BME280;11751;42.700;24.170;2023-02-04T09:30:44;93281.41;;;4.57;71.02
23166;BME280;11751;42.700;24.170;2023-02-04T09:33:11;93288.06;;;4.74;75.43
23166;BME280;11751;42.700;24.170;2023-02-04T09:35:37;93278.56;;;4.83;79.70
23166;BME280;11751;42.700;24.170;2023-02-04T09:38:02;93289.47;;;4.68;75.75
23166;BME280;11751;42.700;24.170;2023-02-04T09:40:30;93274.44;;;4.76;74.05
23166;BME280;11751;42.700;24.170;2023-02-04T09:42:59;93282.44;;;4.67;75.93
23166;BME280;11751;42.700;24.170;2023-02-04T09:45:27;93285.53;;;4.76;79.62
23166;BME280;11751;42.700;24.170;2023-02-04T09:47:56;93276.56;;;5.04;79.99
23166;BME280;11751;42.700;24.170;2023-02-04T09:50:24;93279.19;;;5.09;79.83
23166;BME280;11751;42.700;24.170;2023-02-04T09:52:53;93273.56;;;5.02;80.12
23166;BME280;11751;42.700;24.170;2023-02-04T09:55:23;93261.38;;;5.04;80.94
23166;BME280;11751;42.700;24.170;2023-02-04T09:57:49;93268.63;;;5.07;81.78
23166;BME280;11751;42.700;24.170;2023-02-04T10:00:26;93263.69;;;5.13;82.64
23166;BME280;11751;42.700;24.170;2023-02-04T10:02:52;93269.84;;;5.19;77.96
23166;BME280;11751;42.700;24.170;2023-02-04T10:05:31;93261.75;;;5.29;79.92
23166;BME280;11751;42.700;24.170;2023-02-04T10:07:57;93261.09;;;5.15;82.07
23166;BME280;11751;42.700;24.170;2023-02-04T10:10:24;93252.97;;;5.17;82.49
23166;BME280;11751;42.700;24.170;2023-02-04T10:12:53;93251.59;;;5.04;83.68
23166;BME280;11751;42.700;24.170;2023-02-04T10:15:19;93246.03;;;5.04;84.78
23166;BME280;11751;42.700;24.170;2023-02-04T10:17:47;93248.41;;;5.00;85.36
23166;BME280;11751;42.700;24.170;2023-02-04T10:20:20;93243.66;;;5.07;84.49
23166;BME280;11751;42.700;24.170;2023-02-04T10:22:47;93248.22;;;5.25;84.44
23166;BME280;11751;42.700;24.170;2023-02-04T10:25:19;93240.88;;;5.07;85.40
23166;BME280;11751;42.700;24.170;2023-02-04T10:32:45;93242.97;;;4.94;87.28
23166;BME280;11751;42.700;24.170;2023-02-04T10:35:13;93254.81;;;4.74;85.57
23166;BME280;11751;42.700;24.170;2023-02-04T10:37:39;93249.19;;;4.67;84.63
23166;BME280;11751;42.700;24.170;2023-02-04T10:40:05;93239.50;;;4.60;83.97
23166;BME280;11751;42.700;24.170;2023-02-04T10:42:31;93243.63;;;4.67;83.29
23166;BME280;11751;42.700;24.170;2023-02-04T10:44:57;93240.38;;;4.76;83.00
23166;BME280;11751;42.700;24.170;2023-02-04T10:47:25;93230.78;;;4.77;83.65
23166;BME280;11751;42.700;24.170;2023-02-04T10:49:53;93240.06;;;5.00;84.27
23166;BME280;11751;42.700;24.170;2023-02-04T10:52:20;93238.31;;;5.09;86.61
23166;BME280;11751;42.700;24.170;2023-02-04T10:54:46;93244.72;;;5.04;85.60
23166;BME280;11751;42.700;24.170;2023-02-04T10:57:27;93240.66;;;5.05;84.71
23166;BME280;11751;42.700;24.170;2023-02-04T11:00:00;93239.59;;;5.08;83.40
23166;BME280;11751;42.700;24.170;2023-02-04T11:05:18;93241.69;;;5.15;85.59
23166;BME280;11751;42.700;24.170;2023-02-04T11:07:45;93229.53;;;4.98;89.45
23166;BME280;11751;42.700;24.170;2023-02-04T11:10:16;93240.56;;;4.91;90.33
23166;BME280;11751;42.700;24.170;2023-02-04T11:12:58;93241.88;;;4.77;91.67
23166;BME280;11751;42.700;24.170;2023-02-04T11:19:11;93232.91;;;4.30;93.84
23166;BME280;11751;42.700;24.170;2023-02-04T11:29:32;93230.25;;;3.65;98.45
23166;BME280;11751;42.700;24.170;2023-02-04T11:34:53;93214.91;;;3.51;100.00
23166;BME280;11751;42.700;24.170;2023-02-04T11:37:35;93226.00;;;3.51;100.00
23166;BME280;11751;42.700;24.170;2023-02-04T11:40:13;93223.44;;;3.53;100.00
23166;BME280;11751;42.700;24.170;2023-02-04T11:42:44;93215.13;;;3.53;100.00
23166;BME280;11751;42.700;24.170;2023-02-04T11:45:19;93216.84;;;3.43;100.00
23166;BME280;11751;42.700;24.170;2023-02-04T11:47:45;93209.94;;;3.50;100.00
23166;BME280;11751;42.700;24.170;2023-02-04T11:52:56;93201.31;;;3.53;100.00
23166;BME280;11751;42.700;24.170;2023-02-04T11:55:22;93214.81;;;3.44;100.00
23166;BME280;11751;42.700;24.170;2023-02-04T11:57:56;93200.47;;;3.45;100.00
23166;BME280;11751;42.700;24.170;2023-02-04T12:00:32;93199.81;;;3.52;100.00
23166;BME280;11751;42.700;24.170;2023-02-04T12:03:00;93193.53;;;3.52;100.00
23166;BME280;11751;42.700;24.170;2023-02-04T12:05:40;93198.53;;;3.40;100.00
23166;BME280;11751;42.700;24.170;2023-02-04T12:08:23;93201.09;;;3.51;100.00
23166;BME280;11751;42.700;24.170;2023-02-04T12:10:58;93203.53;;;3.55;100.00
23166;BME280;11751;42.700;24.170;2023-02-04T12:13:25;93201.72;;;3.57;100.00
23166;BME280;11751;42.700;24.170;2023-02-04T12:15:57;93198.44;;;3.59;100.00
23166;BME280;11751;42.700;24.170;2023-02-04T12:18:24;93198.53;;;3.66;100.00
23166;BME280;11751;42.700;24.170;2023-02-04T12:20:52;93185.53;;;3.61;100.00
23166;BME280;11751;42.700;24.170;2023-02-04T12:23:18;93193.09;;;3.61;100.00
23166;BME280;11751;42.700;24.170;2023-02-04T12:25:43;93204.19;;;3.61;100.00
23166;BME280;11751;42.700;24.170;2023-02-04T12:28:08;93193.84;;;3.74;100.00
23166;BME280;11751;42.700;24.170;2023-02-04T12:30:34;93187.09;;;3.83;100.00
23166;BME280;11751;42.700;24.170;2023-02-04T12:33:00;93182.28;;;3.96;100.00
23166;BME280;11751;42.700;24.170;2023-02-04T12:35:25;93190.34;;;4.07;100.00
23166;BME280;11751;42.700;24.170;2023-02-04T12:37:51;93182.44;;;4.11;100.00
23166;BME280;11751;42.700;24.170;2023-02-04T12:40:19;93182.25;;;4.09;100.00
23166;BME280;11751;42.700;24.170;2023-02-04T12:42:45;93179.22;;;4.20;100.00
23166;BME280;11751;42.700;24.170;2023-02-04T12:45:12;93177.50;;;4.17;100.00
23166;BME280;11751;42.700;24.170;2023-02-04T12:47:38;93176.25;;;4.18;100.00
23166;BME280;11751;42.700;24.170;2023-02-04T12:50:05;93189.97;;;4.23;100.00
23166;BME280;11751;42.700;24.170;2023-02-04T12:52:31;93181.38;;;4.14;100.00
23166;BME280;11751;42.700;24.170;2023-02-04T12:54:56;93180.81;;;4.28;100.00
23166;BME280;11751;42.700;24.170;2023-02-04T12:57:22;93176.00;;;4.29;100.00
23166;BME280;11751;42.700;24.170;2023-02-04T12:59:47;93184.97;;;4.22;100.00
23166;BME280;11751;42.700;24.170;2023-02-04T13:02:14;93184.63;;;4.25;100.00
23166;BME280;11751;42.700;24.170;2023-02-04T13:04:40;93184.50;;;4.31;100.00
23166;BME280;11751;42.700;24.170;2023-02-04T13:07:07;93184.97;;;4.22;100.00
23166;BME280;11751;42.700;24.170;2023-02-04T13:09:33;93182.22;;;4.22;100.00
23166;BME280;11751;42.700;24.170;2023-02-04T13:11:59;93191.59;;;4.19;100.00
23166;BME280;11751;42.700;24.170;2023-02-04T13:14:24;93184.44;;;4.23;100.00
23166;BME280;11751;42.700;24.170;2023-02-04T13:16:50;93186.69;;;4.25;100.00
23166;BME280;11751;42.700;24.170;2023-02-04T13:19:15;93199.16;;;4.19;100.00